createdAt,value
2023-03-11T00:01:58.697Z,21.54
2023-03-11T00:04:28.247Z,21.52
2023-03-11T00:06:58.290Z,21.52
2023-03-11T00:09:27.954Z,21.51
2023-03-11T00:12:01.253Z,21.50
2023-03-11T00:14:34.090Z,21.48
2023-03-11T00:17:02.637Z,21.49
2023-03-11T00:19:35.868Z,21.50
2023-03-11T00:22:08.653Z,21.45
2023-03-11T00:24:44.322Z,21.38
2023-03-11T00:27:14.153Z,21.37
2023-03-11T00:29:46.586Z,21.35
2023-03-11T00:32:19.322Z,21.33
2023-03-11T00:34:58.170Z,21.33
2023-03-11T00:37:30.780Z,21.29
2023-03-11T00:39:58.028Z,21.27
2023-03-11T00:42:28.744Z,21.26
2023-03-11T00:44:58.658Z,21.24
2023-03-11T00:47:31.620Z,21.23
2023-03-11T00:50:01.609Z,21.18
2023-03-11T00:52:28.298Z,21.21
2023-03-11T00:55:02.136Z,21.20
2023-03-11T00:57:31.483Z,21.17
2023-03-11T00:59:59.909Z,21.16
2023-03-11T01:02:30.114Z,21.17
2023-03-11T01:05:00.245Z,21.16
2023-03-11T01:07:26.921Z,21.17
2023-03-11T01:09:56.716Z,21.16
2023-03-11T01:12:29.675Z,21.13
2023-03-11T01:14:59.340Z,21.15
2023-03-11T01:17:29.551Z,21.13
2023-03-11T01:19:59.061Z,21.09
2023-03-11T01:22:26.185Z,21.11
2023-03-11T01:24:56.066Z,21.12
2023-03-11T01:27:22.808Z,21.06
2023-03-11T01:29:55.780Z,21.05
2023-03-11T01:32:22.462Z,21.04
2023-03-11T01:34:52.301Z,21.09
2023-03-11T01:37:19.072Z,21.06
2023-03-11T01:39:49.674Z,21.05
2023-03-11T01:42:22.227Z,21.04
2023-03-11T01:44:55.261Z,21.00
2023-03-11T01:47:32.427Z,21.01
2023-03-11T01:49:59.344Z,21.03
2023-03-11T01:52:26.187Z,21.02
2023-03-11T01:54:52.893Z,21.01
2023-03-11T01:57:25.641Z,20.99
2023-03-11T01:59:56.813Z,20.97
2023-03-11T02:02:32.316Z,20.97
2023-03-11T02:05:03.750Z,20.96
2023-03-11T02:07:34.443Z,20.95
2023-03-11T02:10:01.325Z,20.96
2023-03-11T02:12:40.766Z,20.96
2023-03-11T02:15:12.528Z,20.93
2023-03-11T02:17:44.398Z,20.94
2023-03-11T02:20:17.420Z,20.94
2023-03-11T02:22:47.156Z,20.94
2023-03-11T02:25:38.664Z,20.91
2023-03-11T02:28:18.087Z,20.93
2023-03-11T02:30:45.828Z,20.91
2023-03-11T02:33:14.184Z,20.88
2023-03-11T02:35:41.731Z,20.87
2023-03-11T02:38:11.864Z,20.90
2023-03-11T02:40:49.064Z,20.89
2023-03-11T02:43:24.169Z,20.87
2023-03-11T02:45:57.268Z,20.84
2023-03-11T02:48:24.200Z,20.86
2023-03-11T02:50:51.873Z,20.89
2023-03-11T02:53:22.205Z,20.86
2023-03-11T02:55:49.147Z,20.86
2023-03-11T02:58:19.104Z,20.82
2023-03-11T03:00:45.880Z,20.82
2023-03-11T03:03:12.750Z,20.82
2023-03-11T03:05:42.908Z,20.82
2023-03-11T03:08:14.586Z,20.83
2023-03-11T03:10:41.342Z,20.85
2023-03-11T03:13:17.821Z,20.83
2023-03-11T03:15:47.979Z,20.82
2023-03-11T03:18:21.286Z,20.78
2023-03-11T03:20:48.503Z,20.79
2023-03-11T03:23:19.027Z,20.78
2023-03-11T03:25:46.707Z,20.80
2023-03-11T03:28:19.196Z,20.78
2023-03-11T03:30:46.529Z,20.75
2023-03-11T03:33:19.587Z,20.77
2023-03-11T03:35:49.037Z,20.74
2023-03-11T03:38:24.333Z,20.76
2023-03-11T03:40:57.584Z,20.73
2023-03-11T03:43:30.481Z,20.72
2023-03-11T03:46:03.217Z,20.69
2023-03-11T03:48:36.752Z,20.70
2023-03-11T03:51:07.134Z,20.70
2023-03-11T03:53:38.014Z,20.71
2023-03-11T03:56:14.816Z,20.70
2023-03-11T03:58:51.245Z,20.70
2023-03-11T04:01:21.497Z,20.68
2023-03-11T04:03:48.528Z,20.71
2023-03-11T04:06:27.521Z,20.69
2023-03-11T04:08:55.086Z,20.68
2023-03-11T04:11:22.505Z,20.66
2023-03-11T04:13:52.942Z,20.67
2023-03-11T04:16:26.756Z,20.68
2023-03-11T04:18:59.986Z,20.67
2023-03-11T04:21:33.492Z,20.66
2023-03-11T04:24:03.860Z,20.65
2023-03-11T04:26:34.083Z,20.65
2023-03-11T04:29:05.990Z,20.63
2023-03-11T04:31:36.114Z,20.64
2023-03-11T04:34:09.108Z,20.63
2023-03-11T04:36:38.380Z,20.61
2023-03-11T04:39:11.332Z,20.64
2023-03-11T04:41:41.256Z,20.61
2023-03-11T04:44:14.781Z,20.59
2023-03-11T04:46:47.591Z,20.58
2023-03-11T04:49:17.472Z,20.57
2023-03-11T04:51:50.264Z,20.57
2023-03-11T04:54:17.358Z,20.57
2023-03-11T04:56:44.106Z,20.56
2023-03-11T04:59:15.653Z,20.56
2023-03-11T05:01:42.450Z,20.53
2023-03-11T05:04:12.607Z,20.57
2023-03-11T05:06:39.439Z,20.56
2023-03-11T05:09:14.570Z,20.54
2023-03-11T05:11:53.280Z,20.53
2023-03-11T05:14:23.113Z,20.53
2023-03-11T05:16:52.829Z,20.54
2023-03-11T05:19:25.792Z,20.53
2023-03-11T05:21:55.498Z,20.52
2023-03-11T05:24:24.881Z,20.54
2023-03-11T05:26:55.246Z,20.52
2023-03-11T05:29:22.175Z,20.51
2023-03-11T05:31:54.813Z,20.52
2023-03-11T05:34:24.443Z,20.51
2023-03-11T05:37:02.681Z,20.52
2023-03-11T05:39:35.581Z,20.54
2023-03-11T05:42:08.490Z,20.34
2023-03-11T05:44:41.641Z,20.20
2023-03-11T05:47:08.200Z,20.04
2023-03-11T05:49:41.636Z,20.10
2023-03-11T05:52:08.406Z,20.11
2023-03-11T05:54:35.408Z,20.13
2023-03-11T05:57:05.304Z,20.18
2023-03-11T05:59:32.073Z,20.19
2023-03-11T06:02:05.303Z,20.23
2023-03-11T06:04:34.781Z,20.27
2023-03-11T06:07:06.960Z,20.29
2023-03-11T06:09:40.150Z,20.34
2023-03-11T06:12:07.026Z,20.39
2023-03-11T06:14:36.665Z,20.46
2023-03-11T06:17:06.347Z,20.50
2023-03-11T06:19:37.491Z,20.55
2023-03-11T06:22:04.159Z,20.58
2023-03-11T06:24:37.275Z,20.62
2023-03-11T06:27:07.151Z,20.65
2023-03-11T06:29:33.841Z,20.66
2023-03-11T06:32:03.668Z,20.69
2023-03-11T06:34:34.883Z,20.71
2023-03-11T06:37:04.493Z,20.73
2023-03-11T06:39:34.511Z,20.73
2023-03-11T06:42:04.079Z,20.71
2023-03-11T06:44:31.120Z,20.72
2023-03-11T06:46:57.925Z,20.72
2023-03-11T06:49:25.134Z,20.74
2023-03-11T06:51:58.044Z,20.75
2023-03-11T06:54:30.569Z,20.73
2023-03-11T06:57:03.357Z,20.70
2023-03-11T06:59:33.303Z,20.70
2023-03-11T07:02:00.224Z,20.71
2023-03-11T07:04:29.690Z,20.71
2023-03-11T07:07:02.561Z,20.74
2023-03-11T07:09:29.376Z,20.75
2023-03-11T07:11:58.750Z,20.75
2023-03-11T07:14:29.542Z,20.75
2023-03-11T07:16:59.583Z,20.76
2023-03-11T07:19:29.262Z,20.79
2023-03-11T07:22:02.607Z,20.76
2023-03-11T07:24:32.424Z,20.79
2023-03-11T07:27:02.432Z,20.80
2023-03-11T07:29:34.944Z,20.82
2023-03-11T07:32:08.570Z,20.83
2023-03-11T07:34:44.533Z,20.83
2023-03-11T07:37:23.402Z,20.83
2023-03-11T07:39:53.729Z,20.82
2023-03-11T07:42:26.516Z,20.78
2023-03-11T07:44:57.104Z,20.80
2023-03-11T07:47:23.892Z,20.79
2023-03-11T07:49:56.301Z,20.81
2023-03-11T07:52:33.182Z,20.79
2023-03-11T07:55:00.568Z,20.78
2023-03-11T07:57:33.373Z,20.79
2023-03-11T08:00:01.422Z,20.78
2023-03-11T08:02:34.233Z,20.79
2023-03-11T08:05:05.287Z,20.78
2023-03-11T08:07:33.548Z,20.76
2023-03-11T08:10:00.827Z,20.75
2023-03-11T08:12:28.630Z,20.72
2023-03-11T08:15:01.294Z,20.72
2023-03-11T08:17:31.287Z,20.70
2023-03-11T08:20:04.728Z,20.71
2023-03-11T08:22:41.230Z,20.70
2023-03-11T08:25:19.588Z,20.73
2023-03-11T08:27:49.482Z,20.73
2023-03-11T08:30:19.086Z,20.72
2023-03-11T08:32:51.304Z,20.71
2023-03-11T08:35:20.653Z,20.73
2023-03-11T08:37:53.639Z,20.73
2023-03-11T08:40:26.605Z,20.73
2023-03-11T08:42:57.981Z,20.74
2023-03-11T08:45:30.579Z,20.76
2023-03-11T08:48:05.177Z,20.74
2023-03-11T08:50:52.824Z,20.74
2023-03-11T08:53:28.588Z,20.74
2023-03-11T08:56:02.412Z,20.74
2023-03-11T08:58:29.774Z,20.76
2023-03-11T09:01:01.035Z,20.77
2023-03-11T09:03:34.383Z,20.76
2023-03-11T09:06:15.801Z,20.79
2023-03-11T09:08:48.223Z,20.79
2023-03-11T09:11:26.580Z,20.78
2023-03-11T09:13:58.420Z,20.82
2023-03-11T09:16:32.338Z,20.83
2023-03-11T09:19:09.065Z,20.81
2023-03-11T09:21:42.385Z,20.82
2023-03-11T09:24:19.453Z,20.84
2023-03-11T09:26:54.215Z,20.86
2023-03-11T09:29:30.610Z,20.87
2023-03-11T09:32:08.146Z,20.90
2023-03-11T09:34:41.844Z,20.89
2023-03-11T09:37:12.703Z,20.91
2023-03-11T09:39:42.816Z,20.91
2023-03-11T09:42:55.849Z,20.92
2023-03-11T09:45:35.668Z,20.92
2023-03-11T09:48:43.050Z,20.94
2023-03-11T09:51:29.078Z,20.94
2023-03-11T09:54:15.924Z,20.97
2023-03-11T09:56:47.879Z,20.94
2023-03-11T09:59:28.031Z,20.94
2023-03-11T10:02:00.995Z,20.95
2023-03-11T10:04:48.035Z,20.94
2023-03-11T10:07:26.712Z,20.96
2023-03-11T10:10:02.079Z,20.98
2023-03-11T10:12:58.573Z,20.96
2023-03-11T10:15:56.033Z,20.97
2023-03-11T10:18:35.201Z,20.96
2023-03-11T10:21:25.674Z,20.95
2023-03-11T10:24:14.468Z,20.98
2023-03-11T10:27:03.058Z,21.00
2023-03-11T10:30:00.306Z,21.00
2023-03-11T10:32:37.048Z,21.05
2023-03-11T10:35:22.957Z,21.07
2023-03-11T10:38:14.307Z,21.11
2023-03-11T10:40:45.195Z,21.12
2023-03-11T10:43:18.105Z,21.15
2023-03-11T10:45:46.884Z,21.15
2023-03-11T10:48:27.298Z,21.19
2023-03-11T10:51:17.849Z,21.21
2023-03-11T10:54:02.314Z,21.20
2023-03-11T10:56:39.666Z,21.19
2023-03-11T10:59:22.972Z,21.20
2023-03-11T11:02:01.133Z,21.20
2023-03-11T11:04:43.077Z,21.23
2023-03-11T11:07:37.786Z,21.23
2023-03-11T11:10:21.659Z,21.22
2023-03-11T11:13:05.034Z,21.23
2023-03-11T11:15:37.914Z,21.22
2023-03-11T11:18:17.691Z,21.23
2023-03-11T11:21:15.850Z,21.25
2023-03-11T11:23:54.023Z,21.24
2023-03-11T11:26:33.143Z,21.22
2023-03-11T11:29:15.204Z,21.24
2023-03-11T11:31:50.825Z,21.23
2023-03-11T11:34:35.994Z,21.25
2023-03-11T11:37:15.922Z,21.27
2023-03-11T11:39:50.779Z,21.25
2023-03-11T11:42:26.815Z,21.25
2023-03-11T11:45:00.855Z,21.25
2023-03-11T11:47:37.117Z,21.25
2023-03-11T11:50:13.830Z,21.25
2023-03-11T11:52:53.984Z,21.25
2023-03-11T11:55:25.453Z,21.24
2023-03-11T11:57:55.858Z,21.26
2023-03-11T12:00:43.242Z,21.24
2023-03-11T12:03:31.947Z,21.24
2023-03-11T12:06:00.698Z,21.25
2023-03-11T12:08:46.822Z,21.28
2023-03-11T12:11:47.775Z,21.30
2023-03-11T12:14:32.287Z,21.28
2023-03-11T12:17:04.080Z,21.29
2023-03-11T12:19:55.214Z,21.30
2023-03-11T12:22:43.665Z,21.31
2023-03-11T12:25:22.944Z,21.32
2023-03-11T12:28:16.917Z,21.31
2023-03-11T12:30:55.593Z,21.30
2023-03-11T12:33:50.093Z,21.29
2023-03-11T12:36:41.682Z,21.29
2023-03-11T12:39:36.277Z,21.30
2023-03-11T12:42:13.774Z,21.30
2023-03-11T12:44:43.708Z,21.31
2023-03-11T12:47:16.565Z,21.29
2023-03-11T12:49:52.468Z,21.30
2023-03-11T12:53:00.437Z,21.30
2023-03-11T12:55:40.140Z,21.29
2023-03-11T12:58:39.121Z,21.30
2023-03-11T13:01:42.042Z,21.32
2023-03-11T13:04:21.529Z,21.29
2023-03-11T13:07:36.569Z,21.29
2023-03-11T13:10:21.034Z,21.29
2023-03-11T13:12:50.345Z,21.27
2023-03-11T13:15:24.084Z,21.27
2023-03-11T13:18:12.479Z,21.26
2023-03-11T13:20:42.249Z,21.26
2023-03-11T13:23:15.691Z,21.26
2023-03-11T13:25:53.492Z,21.26
2023-03-11T13:28:48.668Z,21.25
2023-03-11T13:32:01.796Z,21.25
2023-03-11T13:34:47.200Z,21.27
2023-03-11T13:37:24.798Z,21.26
2023-03-11T13:40:23.047Z,21.26
2023-03-11T13:43:09.935Z,21.23
2023-03-11T13:45:41.653Z,21.23
2023-03-11T13:48:28.972Z,21.23
2023-03-11T13:51:24.101Z,21.22
2023-03-11T13:54:04.439Z,21.22
2023-03-11T13:56:51.502Z,21.21
2023-03-11T13:59:33.768Z,21.22
2023-03-11T14:02:21.193Z,21.23
2023-03-11T14:04:59.981Z,21.24
2023-03-11T14:07:35.214Z,21.24
2023-03-11T14:10:30.314Z,21.25
2023-03-11T14:13:35.329Z,21.28
2023-03-11T14:16:17.448Z,21.30
2023-03-11T14:18:52.281Z,21.31
2023-03-11T14:21:22.257Z,21.29
2023-03-11T14:23:57.752Z,21.29
2023-03-11T14:26:28.964Z,21.27
2023-03-11T14:29:04.823Z,21.24
2023-03-11T14:31:41.238Z,21.23
2023-03-11T14:34:19.796Z,21.22
2023-03-11T14:37:00.550Z,21.21
2023-03-11T14:39:39.968Z,21.19
2023-03-11T14:42:12.828Z,21.23
2023-03-11T14:44:50.104Z,21.22
2023-03-11T14:47:31.756Z,21.21
2023-03-11T14:49:59.800Z,21.25
2023-03-11T14:52:36.943Z,21.25
2023-03-11T14:55:14.367Z,21.25
2023-03-11T14:58:12.394Z,21.26
2023-03-11T15:00:47.345Z,21.26
2023-03-11T15:03:23.602Z,21.25
2023-03-11T15:05:59.151Z,21.25
2023-03-11T15:08:31.916Z,21.21
2023-03-11T15:11:15.650Z,21.21
2023-03-11T15:13:45.907Z,21.17
2023-03-11T15:16:33.823Z,21.14
2023-03-11T15:19:29.687Z,21.11
2023-03-11T15:22:07.396Z,21.11
2023-03-11T15:24:38.943Z,21.09
2023-03-11T15:27:33.152Z,21.09
2023-03-11T15:30:02.700Z,21.08
2023-03-11T15:32:38.742Z,21.07
2023-03-11T15:35:19.345Z,21.05
2023-03-11T15:37:50.141Z,21.04
2023-03-11T15:40:44.390Z,21.02
2023-03-11T15:43:26.756Z,20.99
2023-03-11T15:45:55.057Z,20.98
2023-03-11T15:48:22.792Z,20.99
2023-03-11T15:50:55.656Z,20.98
2023-03-11T15:53:33.201Z,20.97
2023-03-11T15:56:14.531Z,20.97
2023-03-11T15:58:45.060Z,20.97
2023-03-11T16:01:12.730Z,20.97
2023-03-11T16:03:44.697Z,20.96
2023-03-11T16:06:15.437Z,20.97
2023-03-11T16:08:46.271Z,20.97
2023-03-11T16:11:16.813Z,20.96
2023-03-11T16:13:49.660Z,20.95
2023-03-11T16:16:18.040Z,20.95
2023-03-11T16:18:53.252Z,20.94
2023-03-11T16:21:25.605Z,20.92
2023-03-11T16:24:00.584Z,20.90
2023-03-11T16:26:30.452Z,20.90
2023-03-11T16:29:16.548Z,20.89
2023-03-11T16:31:45.870Z,20.86
2023-03-11T16:34:18.742Z,20.86
2023-03-11T16:36:49.031Z,20.84
2023-03-11T16:39:21.121Z,20.84
2023-03-11T16:41:48.916Z,20.83
2023-03-11T16:44:24.537Z,20.87
2023-03-11T16:46:55.267Z,20.86
2023-03-11T16:49:31.657Z,20.87
2023-03-11T16:51:59.545Z,20.87
2023-03-11T16:54:29.664Z,20.89
2023-03-11T16:57:04.575Z,20.92
2023-03-11T16:59:35.102Z,20.92
2023-03-11T17:02:04.353Z,20.92
2023-03-11T17:04:35.417Z,20.89
2023-03-11T17:07:08.277Z,20.88
2023-03-11T17:09:38.766Z,20.89
2023-03-11T17:12:12.150Z,20.91
2023-03-11T17:14:43.612Z,20.91
2023-03-11T17:17:14.695Z,20.93
2023-03-11T17:19:43.773Z,20.94
2023-03-11T17:22:14.855Z,20.95
2023-03-11T17:24:45.280Z,20.96
2023-03-11T17:27:16.100Z,20.96
2023-03-11T17:29:43.195Z,20.96
2023-03-11T17:32:15.764Z,20.97
2023-03-11T17:34:47.089Z,20.99
2023-03-11T17:37:17.034Z,21.00
2023-03-11T17:39:47.120Z,21.00
2023-03-11T17:42:17.333Z,21.00
2023-03-11T17:44:51.667Z,21.00
2023-03-11T17:47:25.260Z,21.01
2023-03-11T17:49:53.386Z,21.04
2023-03-11T17:52:26.060Z,21.06
2023-03-11T17:54:57.699Z,21.07
2023-03-11T17:57:25.492Z,21.10
2023-03-11T18:00:00.228Z,21.13
2023-03-11T18:02:32.537Z,21.16
2023-03-11T18:05:06.355Z,21.20
2023-03-11T18:07:40.999Z,21.24
2023-03-11T18:10:18.573Z,21.26
2023-03-11T18:12:54.398Z,21.30
2023-03-11T18:15:22.008Z,21.33
2023-03-11T18:17:50.061Z,21.40
2023-03-11T18:20:23.274Z,21.44
2023-03-11T18:22:53.994Z,21.45
2023-03-11T18:25:24.518Z,21.45
2023-03-11T18:27:53.925Z,21.45
2023-03-11T18:30:27.546Z,21.44
2023-03-11T18:32:58.725Z,21.44
2023-03-11T18:35:32.548Z,21.46
2023-03-11T18:38:03.548Z,21.48
2023-03-11T18:40:36.430Z,21.50
2023-03-11T18:43:13.773Z,21.52
2023-03-11T18:45:46.420Z,21.53
2023-03-11T18:48:18.035Z,21.55
2023-03-11T18:50:56.854Z,21.58
2023-03-11T18:53:25.740Z,21.58
2023-03-11T18:56:07.695Z,21.60
2023-03-11T18:58:43.504Z,21.61
2023-03-11T19:01:27.513Z,21.61
2023-03-11T19:04:01.625Z,21.63
2023-03-11T19:06:36.693Z,21.63
2023-03-11T19:09:09.286Z,21.63
2023-03-11T19:11:44.108Z,21.65
2023-03-11T19:14:18.425Z,21.66
2023-03-11T19:16:52.469Z,21.69
2023-03-11T19:19:27.375Z,21.68
2023-03-11T19:22:00.132Z,21.68
2023-03-11T19:24:38.882Z,21.70
2023-03-11T19:27:08.946Z,21.73
2023-03-11T19:29:38.154Z,21.73
2023-03-11T19:32:11.599Z,21.75
2023-03-11T19:34:40.719Z,21.76
2023-03-11T19:39:43.114Z,21.78
2023-03-11T19:42:14.737Z,21.82
2023-03-11T19:44:46.112Z,21.84
2023-03-11T19:47:27.263Z,21.84
2023-03-11T19:49:55.042Z,21.84
2023-03-11T19:52:24.446Z,21.86
2023-03-11T19:54:52.665Z,21.87
2023-03-11T19:57:30.960Z,21.87
2023-03-11T19:59:58.545Z,21.89
2023-03-11T20:02:29.691Z,21.90
2023-03-11T20:04:58.189Z,21.89
2023-03-11T20:07:29.646Z,21.91
2023-03-11T20:10:02.778Z,21.92
2023-03-11T20:12:36.685Z,21.92
2023-03-11T20:15:11.160Z,21.93
2023-03-11T20:17:39.198Z,21.94
2023-03-11T20:20:11.550Z,21.95
2023-03-11T20:22:43.705Z,21.96
2023-03-11T20:25:16.566Z,21.97
2023-03-11T20:27:47.539Z,21.95
2023-03-11T20:30:19.099Z,21.96
2023-03-11T20:32:56.032Z,21.95
2023-03-11T20:35:24.691Z,21.95
2023-03-11T20:37:56.359Z,21.94
2023-03-11T20:40:27.493Z,21.95
2023-03-11T20:42:55.806Z,21.95
2023-03-11T20:45:26.840Z,21.96
2023-03-11T20:47:54.352Z,21.97
2023-03-11T20:50:23.965Z,21.97
2023-03-11T20:52:54.874Z,21.97
2023-03-11T20:55:26.217Z,21.98
2023-03-11T20:58:04.502Z,21.99
2023-03-11T21:00:39.541Z,21.98
2023-03-11T21:03:10.309Z,21.99
2023-03-11T21:05:41.754Z,21.98
2023-03-11T21:08:13.146Z,21.99
2023-03-11T21:10:41.038Z,21.99
2023-03-11T21:13:14.387Z,22.00
2023-03-11T21:15:42.165Z,21.99
2023-03-11T21:18:19.088Z,21.98
2023-03-11T21:20:50.735Z,21.99
2023-03-11T21:23:22.129Z,22.00
2023-03-11T21:26:00.776Z,22.00
2023-03-11T21:28:32.945Z,21.99
2023-03-11T21:31:30.589Z,22.01
2023-03-11T21:34:02.654Z,22.01
2023-03-11T21:36:34.618Z,22.01
2023-03-11T21:39:08.867Z,22.00
2023-03-11T21:41:37.273Z,21.99
2023-03-11T21:44:08.162Z,22.00
2023-03-11T21:46:49.457Z,21.99
2023-03-11T21:49:22.510Z,22.00
2023-03-11T21:51:51.556Z,22.00
2023-03-11T21:54:22.710Z,22.01
2023-03-11T21:56:51.852Z,22.00
2023-03-11T21:59:25.409Z,22.00
2023-03-11T22:02:01.409Z,22.00
2023-03-11T22:04:36.926Z,22.00
2023-03-11T22:07:09.012Z,21.99
2023-03-11T22:09:46.345Z,21.99
2023-03-11T22:12:15.404Z,21.99
2023-03-11T22:14:44.023Z,21.98
2023-03-11T22:17:13.372Z,21.96
2023-03-11T22:19:44.636Z,21.94
2023-03-11T22:22:12.817Z,21.94
2023-03-11T22:24:43.076Z,21.94
2023-03-11T22:27:11.363Z,21.95
2023-03-11T22:29:42.158Z,21.93
2023-03-11T22:32:16.053Z,21.94
2023-03-11T22:34:46.356Z,21.94
2023-03-11T22:37:20.527Z,21.94
2023-03-11T22:39:57.336Z,21.93
2023-03-11T22:42:28.263Z,21.93
2023-03-11T22:45:01.894Z,21.94
2023-03-11T22:47:35.718Z,21.93
2023-03-11T22:50:04.453Z,21.93
2023-03-11T22:52:32.832Z,21.94
2023-03-11T22:55:10.449Z,21.93
2023-03-11T22:57:42.781Z,21.92
2023-03-11T23:00:14.628Z,21.92
2023-03-11T23:02:42.746Z,21.93
2023-03-11T23:05:10.576Z,21.93
2023-03-11T23:07:39.181Z,21.92
2023-03-11T23:10:08.611Z,21.92
2023-03-11T23:12:37.346Z,21.91
2023-03-11T23:15:10.856Z,21.91
2023-03-11T23:17:44.490Z,21.91
2023-03-11T23:20:17.390Z,21.91
2023-03-11T23:22:48.010Z,21.90
2023-03-11T23:25:20.761Z,21.90
2023-03-11T23:27:49.830Z,21.91
2023-03-11T23:30:17.488Z,21.90
2023-03-11T23:32:45.548Z,21.89
2023-03-11T23:35:13.531Z,21.89
2023-03-11T23:37:47.394Z,21.86
2023-03-11T23:40:20.879Z,21.88
2023-03-11T23:42:54.337Z,21.88
2023-03-11T23:45:24.262Z,21.86
2023-03-11T23:47:51.821Z,21.88
2023-03-11T23:50:22.440Z,21.88
2023-03-11T23:52:57.352Z,21.86
2023-03-11T23:55:24.654Z,21.86
2023-03-11T23:57:51.701Z,21.86
